Time;durP1;ratioP1;P1;durP2;ratioP2;P2;SDS_P1;SDS_P2;PMS_P1;PMS_P2;Temp;Humidity;BMP_temperature;BMP_pressure;BME280_temperature;BME280_humidity;BME280_pressure;Samples;Min_cycle;Max_cycle;Signal;HPM_P1;HPM_P2
2022/09/02 00:01:01;;;;;;;4.55;2.47;;;;;;;17.75;55.11;99867.44;12198967;19;20070;-82
2022/09/02 00:05:03;;;;;;;4.75;2.35;;;;;;;17.69;55.81;99863.03;12215317;19;20010;-82
2022/09/02 00:09:06;;;;;;;6.13;2.87;;;;;;;17.67;55.46;99860.56;12222884;19;20358;-82
2022/09/02 00:13:10;;;;;;;4.13;1.98;;;;;;;17.65;55.76;99856.41;12198844;19;20006;-82
2022/09/02 00:17:12;;;;;;;4.55;2.58;;;;;;;17.60;55.99;99859.25;12220154;19;20441;-82
2022/09/02 00:21:14;;;;;;;3.70;2.42;;;;;;;17.57;55.63;99851.47;12222775;19;20364;-81
2022/09/02 00:25:16;;;;;;;4.88;2.65;;;;;;;17.56;55.72;99860.97;12199315;19;20082;-82
2022/09/02 00:29:18;;;;;;;3.53;2.35;;;;;;;17.49;56.37;99861.28;12220771;19;20010;-82
2022/09/02 00:33:19;;;;;;;5.72;3.75;;;;;;;17.47;56.47;99856.03;12218212;19;20023;-81
2022/09/02 00:37:26;;;;;;;8.02;2.63;;;;;;;17.51;56.24;99845.94;12216999;19;20014;-80
2022/09/02 00:41:29;;;;;;;4.30;2.83;;;;;;;17.49;56.70;99851.00;12219662;19;20082;-80
2022/09/02 00:45:30;;;;;;;4.28;2.65;;;;;;;17.50;56.41;99851.84;12195419;19;20149;-81
2022/09/02 00:49:38;;;;;;;5.45;3.00;;;;;;;17.50;56.31;99841.50;12221070;19;20007;-81
2022/09/02 00:53:43;;;;;;;3.63;2.75;;;;;;;17.49;56.63;99842.66;12218763;19;20069;-81
2022/09/02 00:57:49;;;;;;;4.30;2.58;;;;;;;17.51;56.45;99840.38;12197561;19;20024;-82
2022/09/02 01:01:51;;;;;;;5.57;2.92;;;;;;;17.47;56.77;99838.50;12216641;19;20010;-81
2022/09/02 01:05:54;;;;;;;2.90;2.53;;;;;;;17.46;56.75;99837.66;12211584;19;20031;-82
2022/09/02 01:09:56;;;;;;;5.80;2.72;;;;;;;17.46;56.60;99834.88;12194549;19;20093;-82
2022/09/02 01:13:58;;;;;;;3.13;2.63;;;;;;;17.46;56.71;99836.81;12216649;19;20099;-82
2022/09/02 01:18:00;;;;;;;8.40;2.88;;;;;;;17.44;57.12;99836.31;12213177;19;20094;-82
2022/09/02 01:22:13;;;;;;;6.72;2.83;;;;;;;17.40;57.21;99838.84;12196109;19;19999;-82
2022/09/02 01:26:15;;;;;;;4.03;3.00;;;;;;;17.39;57.19;99841.91;12213617;19;20007;-82
2022/09/02 01:30:21;;;;;;;7.82;2.70;;;;;;;17.33;57.53;99832.78;12214376;19;20066;-81
2022/09/02 01:34:23;;;;;;;4.32;2.80;;;;;;;17.25;57.88;99837.06;12191561;19;20011;-82
2022/09/02 01:38:26;;;;;;;14.18;2.88;;;;;;;17.15;58.38;99837.13;12216676;19;20015;-82
2022/09/02 01:42:28;;;;;;;3.35;2.67;;;;;;;17.06;58.78;99842.50;12193025;19;20023;-82
2022/09/02 01:46:30;;;;;;;4.07;2.72;;;;;;;17.00;59.34;99831.72;12209351;19;20011;-82
2022/09/02 01:50:32;;;;;;;5.05;3.05;;;;;;;16.96;59.67;99836.22;12211286;19;20014;-82
2022/09/02 01:54:34;;;;;;;4.90;3.03;;;;;;;16.89;59.67;99828.16;12191552;19;20015;-81
2022/09/02 01:58:36;;;;;;;5.03;3.47;;;;;;;16.81;59.82;99821.28;12213873;19;20023;-83
2022/09/02 02:02:39;;;;;;;4.87;3.00;;;;;;;16.72;60.30;99825.78;12211615;19;20046;-80
2022/09/02 02:06:47;;;;;;;4.35;3.08;;;;;;;16.60;60.99;99830.91;12188560;19;20022;-79
2022/09/02 02:10:53;;;;;;;5.80;3.70;;;;;;;16.47;60.94;99831.53;12213174;19;20045;-79
2022/09/02 02:14:56;;;;;;;5.63;3.10;;;;;;;16.31;61.48;99834.41;12212218;19;20030;-80
2022/09/02 02:18:58;;;;;;;4.60;3.10;;;;;;;16.14;62.65;99828.38;12192022;19;20045;-81
2022/09/02 02:23:00;;;;;;;4.30;3.47;;;;;;;16.00;62.79;99821.78;12211285;19;19998;-80
2022/09/02 02:27:02;;;;;;;7.35;3.80;;;;;;;15.89;63.40;99821.84;12210986;19;20009;-80
2022/09/02 02:31:05;;;;;;;7.83;3.13;;;;;;;15.80;63.72;99823.56;12185557;19;20026;-81
2022/09/02 02:35:08;;;;;;;4.75;3.13;;;;;;;15.71;64.17;99825.28;12205793;19;20027;-82
2022/09/02 02:39:10;;;;;;;4.35;3.15;;;;;;;15.62;64.50;99829.72;12205694;19;20464;-81
2022/09/02 02:43:12;;;;;;;3.60;3.03;;;;;;;15.53;64.97;99826.69;12186971;19;20410;-82
2022/09/02 02:47:15;;;;;;;4.57;3.28;;;;;;;15.46;65.23;99828.91;12207285;19;20330;-83
2022/09/02 02:51:16;;;;;;;5.00;3.28;;;;;;;15.39;65.69;99822.84;12211152;19;20022;-82
2022/09/02 02:55:20;;;;;;;4.30;3.38;;;;;;;15.31;66.11;99831.72;12183465;19;20003;-82
2022/09/02 02:59:21;;;;;;;4.68;3.42;;;;;;;15.23;66.24;99822.03;12208403;19;20010;-81
2022/09/02 03:03:25;;;;;;;4.68;3.55;;;;;;;15.19;66.47;99820.91;12186166;19;20011;-81
2022/09/02 03:07:29;;;;;;;5.05;3.65;;;;;;;15.14;66.92;99823.69;12206406;19;20526;-82
2022/09/02 03:11:30;;;;;;;5.13;3.60;;;;;;;15.08;67.22;99822.91;12209799;19;20018;-81
2022/09/02 03:15:32;;;;;;;5.05;3.30;;;;;;;15.03;67.58;99818.16;12196377;19;20007;-81
2022/09/02 03:19:34;;;;;;;8.07;3.80;;;;;;;15.00;68.02;99821.50;12212209;19;20011;-81
2022/09/02 03:23:36;;;;;;;4.17;3.17;;;;;;;14.95;68.45;99818.72;12210042;19;20014;-80
2022/09/02 03:27:40;;;;;;;6.50;3.30;;;;;;;14.87;68.49;99819.28;12186354;19;20573;-82
2022/09/02 03:31:41;;;;;;;5.18;3.58;;;;;;;14.83;68.85;99818.19;12210599;19;20007;-81
2022/09/02 03:35:44;;;;;;;5.72;3.67;;;;;;;14.74;69.04;99815.13;12206796;19;20440;-81
2022/09/02 03:39:46;;;;;;;4.55;3.30;;;;;;;14.69;69.11;99811.50;12184748;19;20096;-81
2022/09/02 03:43:48;;;;;;;4.93;3.13;;;;;;;14.67;69.66;99808.22;12203467;19;20011;-80
2022/09/02 03:47:52;;;;;;;6.40;3.53;;;;;;;14.66;69.53;99803.75;12204160;19;20015;-82
2022/09/02 03:51:58;;;;;;;5.00;3.47;;;;;;;14.62;70.58;99797.09;12184439;19;20011;-81
2022/09/02 03:56:05;;;;;;;6.40;3.60;;;;;;;14.63;70.27;99799.59;12206683;19;20596;-81
2022/09/02 04:00:08;;;;;;;6.55;3.47;;;;;;;14.70;70.51;99800.16;12204896;19;20007;-80
2022/09/02 04:04:14;;;;;;;4.32;3.40;;;;;;;14.76;70.29;99792.69;12181660;19;20010;-81
2022/09/02 04:08:25;;;;;;;4.65;3.92;;;;;;;14.87;70.00;99797.09;12204024;19;20645;-80
2022/09/02 04:12:29;;;;;;;6.25;3.80;;;;;;;14.94;69.92;99803.19;12189848;19;20046;-80
2022/09/02 04:16:33;;;;;;;6.82;3.55;;;;;;;15.02;69.69;99799.88;12216222;19;20019;-82
2022/09/02 04:20:41;;;;;;;4.65;3.13;;;;;;;15.02;69.64;99801.78;12215944;19;20093;-81
2022/09/02 04:24:42;;;;;;;6.82;3.92;;;;;;;14.95;69.86;99804.03;12192561;19;20030;-82
2022/09/02 04:28:46;;;;;;;5.07;3.63;;;;;;;14.85;70.02;99804.88;12214056;19;20017;-81
2022/09/02 04:32:47;;;;;;;4.50;3.58;;;;;;;14.74;69.99;99801.25;12215534;19;20014;-82
2022/09/02 04:36:49;;;;;;;4.97;3.58;;;;;;;14.66;70.09;99806.53;12194765;19;20014;-82
2022/09/02 04:40:52;;;;;;;6.60;3.97;;;;;;;14.53;70.52;99797.66;12261548;19;20657;-81
2022/09/02 04:44:56;;;;;;;5.10;3.67;;;;;;;14.44;70.70;99802.06;12265876;19;19998;-80
2022/09/02 04:49:00;;;;;;;5.00;3.30;;;;;;;14.34;71.31;99800.09;12207204;19;20006;-82
2022/09/02 04:53:04;;;;;;;7.10;3.92;;;;;;;14.28;71.25;99801.22;12219398;19;20006;-82
2022/09/02 04:57:05;;;;;;;7.50;4.03;;;;;;;14.23;71.66;99805.91;12216956;19;20010;-79
2022/09/02 05:01:14;;;;;;;5.07;3.95;;;;;;;14.20;71.88;99812.00;12196495;19;20032;-79
2022/09/02 05:05:16;;;;;;;4.38;3.42;;;;;;;14.18;72.32;99816.97;12214423;19;20533;-82
2022/09/02 05:09:20;;;;;;;6.47;4.00;;;;;;;14.14;72.48;99817.53;12217994;19;20394;-81
2022/09/02 05:13:30;;;;;;;7.20;4.50;;;;;;;14.09;72.77;99816.66;12194479;19;20037;-81
2022/09/02 05:17:34;;;;;;;;;;;;;;;14.07;73.46;99813.34;12217165;19;20475;-82
2022/09/02 05:21:43;;;;;;;8.02;3.88;;;;;;;14.10;72.88;99818.34;12194706;19;19918;-81
2022/09/02 05:25:50;;;;;;;6.25;4.13;;;;;;;14.10;72.82;99813.63;12211306;19;20083;-81
2022/09/02 05:29:58;;;;;;;5.90;4.00;;;;;;;14.07;73.02;99814.19;12214754;19;20017;-81
2022/09/02 05:34:01;;;;;;;5.95;4.00;;;;;;;14.03;73.43;99824.13;12190485;19;20006;-80
2022/09/02 05:38:03;;;;;;;6.75;3.95;;;;;;;14.04;73.44;99820.28;12215085;19;20011;-80
2022/09/02 05:42:06;;;;;;;5.55;3.75;;;;;;;14.06;73.87;99837.44;12212313;19;20464;-81
2022/09/02 05:46:10;;;;;;;8.27;4.10;;;;;;;14.09;74.22;99822.22;12189330;19;20006;-81
2022/09/02 05:50:13;;;;;;;7.20;3.90;;;;;;;14.12;73.93;99827.19;12212823;19;20017;-81
2022/09/02 05:54:23;;;;;;;9.00;3.95;;;;;;;14.15;74.51;99826.66;12210949;19;20365;-81
2022/09/02 05:58:26;;;;;;;10.75;4.32;;;;;;;14.20;75.07;99817.53;12190459;19;20010;-80
2022/09/02 06:02:28;;;;;;;5.05;3.65;;;;;;;14.27;75.06;99823.63;12210719;19;20014;-80
2022/09/02 06:06:31;;;;;;;5.53;3.50;;;;;;;14.34;74.70;99824.22;12190060;19;20014;-82
2022/09/02 06:10:33;;;;;;;6.60;3.42;;;;;;;14.39;74.70;99826.97;12213605;19;20038;-81
2022/09/02 06:14:36;;;;;;;5.28;3.60;;;;;;;14.44;74.38;99824.22;12212184;19;20017;-80
2022/09/02 06:18:39;;;;;;;5.85;3.42;;;;;;;14.51;74.31;99816.50;12190944;19;20034;-82
2022/09/02 06:22:41;;;;;;;5.95;3.83;;;;;;;14.59;74.34;99820.66;12204062;19;20018;-80
2022/09/02 06:26:43;;;;;;;4.65;3.00;;;;;;;14.74;73.77;99823.44;12192507;19;20015;-81
2022/09/02 06:30:47;;;;;;;8.18;3.47;;;;;;;14.98;72.82;99825.66;12193145;19;20010;-81
2022/09/02 06:34:50;;;;;;;7.68;3.42;;;;;;;15.24;71.47;99821.75;12210347;19;20340;-82
2022/09/02 06:38:55;;;;;;;4.45;3.25;;;;;;;15.43;70.93;99824.75;12216121;19;20803;-81
2022/09/02 06:42:57;;;;;;;5.80;3.25;;;;;;;15.69;69.28;99824.72;12193665;19;20006;-82
2022/09/02 06:47:18;;;;;;;3.90;2.80;;;;;;;15.98;68.10;99835.16;12215640;19;20089;-81
2022/09/02 06:51:30;;;;;;;3.90;2.63;;;;;;;16.21;67.73;99828.94;12218581;19;20007;-81
2022/09/02 06:55:35;;;;;;;3.85;2.72;;;;;;;16.43;67.06;99824.91;12193864;19;20010;-81
2022/09/02 06:59:37;;;;;;;3.97;2.55;;;;;;;16.65;65.64;99819.72;12211152;19;20015;-81
2022/09/02 07:07:59;;;;;;;5.22;2.33;;;;;;;17.20;63.54;99820.38;12212397;19;20467;-81
2022/09/02 07:12:02;;;;;;;7.20;3.05;;;;;;;17.41;61.92;99817.41;12217154;19;20042;-82
2022/09/02 07:16:11;;;;;;;4.90;3.33;;;;;;;17.60;60.82;99815.50;12193189;19;20061;-80
2022/09/02 07:20:20;;;;;;;4.82;3.03;;;;;;;17.90;60.08;99810.69;12212985;19;20010;-81
2022/09/02 07:24:27;;;;;;;6.18;2.10;;;;;;;18.17;59.55;99819.28;12187316;19;20082;-80
2022/09/02 07:28:29;;;;;;;3.92;2.65;;;;;;;18.35;57.62;99814.84;12210421;19;20014;-81
2022/09/02 07:32:32;;;;;;;3.90;2.30;;;;;;;18.68;57.64;99812.91;12212859;19;20088;-78
2022/09/02 07:36:36;;;;;;;4.22;2.35;;;;;;;18.99;56.78;99812.44;12186517;19;20015;-80
2022/09/02 07:40:41;;;;;;;7.25;2.20;;;;;;;19.15;54.74;99810.19;12212555;19;20607;-81
2022/09/02 07:44:44;;;;;;;3.75;2.10;;;;;;;19.37;54.39;99817.06;12209343;19;20082;-80
2022/09/02 07:48:50;;;;;;;6.38;3.35;;;;;;;19.47;53.07;99809.31;12200952;19;20796;-81
2022/09/02 07:52:57;;;;;;;5.20;2.50;;;;;;;19.63;52.54;99804.28;12226311;19;20073;-81
2022/09/02 07:57:01;;;;;;;3.70;1.83;;;;;;;20.00;52.13;99806.03;12226564;19;20026;-79
2022/09/02 08:01:03;;;;;;;6.28;2.03;;;;;;;20.38;51.43;99797.34;12202803;19;20352;-79
2022/09/02 08:05:05;;;;;;;2.77;1.77;;;;;;;20.52;49.61;99791.72;12219244;19;20010;-78
2022/09/02 08:09:11;;;;;;;5.82;1.90;;;;;;;20.75;49.15;99789.75;12224788;19;20010;-79
2022/09/02 08:13:13;;;;;;;3.28;1.80;;;;;;;20.94;48.76;99797.97;12198005;19;20010;-77
2022/09/02 08:17:15;;;;;;;3.67;1.53;;;;;;;21.16;47.56;99792.34;12224589;19;20015;-79
2022/09/02 08:21:17;;;;;;;3.70;2.05;;;;;;;21.45;47.19;99790.22;12223911;19;20255;-78
2022/09/02 08:25:19;;;;;;;4.55;1.80;;;;;;;21.69;46.26;99796.25;12200739;19;20011;-77
2022/09/02 08:29:21;;;;;;;3.33;1.92;;;;;;;21.94;45.96;99802.25;12222662;19;20011;-78
2022/09/02 08:33:22;;;;;;;3.95;2.35;;;;;;;22.22;46.16;99798.06;12204615;19;20094;-77
2022/09/02 08:37:26;;;;;;;2.47;1.50;;;;;;;22.52;44.76;99806.69;12213244;19;20637;-78
2022/09/02 08:41:53;;;;;;;2.67;1.67;;;;;;;22.52;43.62;99795.44;12220855;19;20023;-80
2022/09/02 08:45:59;;;;;;;2.38;1.75;;;;;;;22.69;43.46;99784.19;12200568;19;20014;-78
2022/09/02 08:50:11;;;;;;;3.58;1.40;;;;;;;22.89;42.56;99790.28;12224383;19;20025;-81
2022/09/02 08:54:28;;;;;;;5.00;3.08;;;;;;;23.04;42.29;99786.16;12222087;19;20106;-80
2022/09/02 08:58:40;;;;;;;3.08;1.33;;;;;;;23.27;41.48;99786.78;12201528;19;20019;-76
2022/09/02 09:02:59;;;;;;;4.53;1.40;;;;;;;23.38;40.84;99785.22;12262055;19;20015;-79
2022/09/02 09:07:19;;;;;;;1.98;1.38;;;;;;;23.47;40.52;99780.41;12225787;19;20007;-76
2022/09/02 09:11:53;;;;;;;2.97;1.58;;;;;;;23.66;40.06;99771.56;12247789;19;20010;-79
2022/09/02 09:16:00;;;;;;;7.07;1.77;;;;;;;23.91;39.21;99781.03;12195691;19;20082;-79
2022/09/02 09:20:15;;;;;;;2.70;1.40;;;;;;;23.96;38.44;99772.41;12225281;19;20006;-82
2022/09/02 09:24:35;;;;;;;1.80;1.33;;;;;;;24.04;37.94;99765.09;12223664;19;20069;-80
2022/09/02 09:28:45;;;;;;;2.47;1.30;;;;;;;24.19;37.45;99758.84;12200383;19;20021;-80
2022/09/02 09:32:53;;;;;;;2.25;1.10;;;;;;;24.44;37.39;99759.84;12221879;19;20467;-78
2022/09/02 09:36:55;;;;;;;3.17;1.45;;;;;;;24.72;37.43;99759.28;12190466;19;20011;-78
2022/09/02 09:41:19;;;;;;;4.97;1.20;;;;;;;24.79;36.15;99760.34;12221741;19;20015;-79
2022/09/02 09:45:33;;;;;;;2.30;1.25;;;;;;;24.89;35.88;99747.81;12224804;19;20017;-78
2022/09/02 09:49:36;;;;;;;2.28;1.15;;;;;;;25.09;35.58;99737.66;12200375;19;20007;-82
2022/09/02 09:53:38;;;;;;;6.25;1.25;;;;;;;25.13;34.20;99749.91;12217727;19;20015;-78
2022/09/02 09:57:43;;;;;;;3.60;1.20;;;;;;;25.00;33.53;99740.56;12201220;19;20021;-81
2022/09/02 10:01:50;;;;;;;3.15;1.10;;;;;;;25.28;34.38;99739.94;12224699;19;20077;-80
2022/09/02 10:05:55;;;;;;;1.38;0.85;;;;;;;25.56;33.19;99733.63;12221733;19;20011;-79
2022/09/02 10:10:15;;;;;;;6.07;1.25;;;;;;;25.60;32.51;99738.19;12199613;19;20017;-79
2022/09/02 10:14:17;;;;;;;2.92;1.10;;;;;;;25.61;32.39;99730.56;12221473;19;20003;-79
2022/09/02 10:18:31;;;;;;;1.77;1.13;;;;;;;25.82;32.59;99724.81;12226597;19;20017;-82
2022/09/02 10:22:41;;;;;;;2.67;1.10;;;;;;;25.93;32.61;99723.16;12206746;19;20034;-82
2022/09/02 10:27:07;;;;;;;1.98;1.10;;;;;;;26.25;32.18;99726.97;12222802;19;20006;-80
2022/09/02 10:31:09;;;;;;;2.10;1.20;;;;;;;26.39;31.31;99720.94;12199422;19;20046;-80
2022/09/02 10:35:45;;;;;;;3.53;1.10;;;;;;;26.47;30.78;99719.13;12221169;19;20494;-80
2022/09/02 10:40:24;;;;;;;2.95;1.00;;;;;;;26.36;30.47;99711.19;12243879;19;20022;-80
2022/09/02 10:44:43;;;;;;;2.28;1.33;;;;;;;26.28;29.70;99705.66;12249422;19;20003;-80
2022/09/02 10:49:09;;;;;;;5.22;1.45;;;;;;;26.31;29.95;99708.59;12203304;19;20033;-80
2022/09/02 10:53:20;;;;;;;1.58;1.08;;;;;;;26.48;30.49;99712.31;12221868;19;20521;-80
2022/09/02 10:57:30;;;;;;;2.60;1.20;;;;;;;26.78;30.31;99698.66;12223688;19;20018;-80
2022/09/02 11:01:51;;;;;;;5.18;1.33;;;;;;;26.98;29.81;99699.59;12200497;19;20077;-79
2022/09/02 11:06:15;;;;;;;1.20;0.98;;;;;;;27.05;30.17;99694.13;12219931;19;20018;-81
2022/09/02 11:10:38;;;;;;;2.50;1.20;;;;;;;26.59;30.27;99674.75;12199105;19;20023;-79
2022/09/02 11:14:55;;;;;;;1.90;1.20;;;;;;;26.67;30.06;99674.94;12217094;19;20075;-81
2022/09/02 11:19:04;;;;;;;3.13;1.23;;;;;;;26.90;29.43;99672.34;12198425;19;20456;-81
2022/09/02 11:23:19;;;;;;;2.08;0.95;;;;;;;27.10;29.29;99671.25;12230127;19;20035;-80
2022/09/02 11:27:42;;;;;;;2.40;0.90;;;;;;;27.05;28.23;99668.69;12229806;19;20103;-82
2022/09/02 11:31:50;;;;;;;3.88;1.25;;;;;;;26.76;27.73;99667.09;12206775;19;20011;-81
2022/09/02 11:35:52;;;;;;;3.25;1.23;;;;;;;26.84;28.30;99656.81;12231400;19;20018;-81
2022/09/02 11:40:37;;;;;;;1.83;1.10;;;;;;;27.05;27.41;99648.91;12205494;19;20066;-81
2022/09/02 11:45:01;;;;;;;2.15;1.15;;;;;;;27.56;27.76;99637.66;12222774;19;20288;-81
2022/09/02 11:49:34;;;;;;;2.40;0.95;;;;;;;28.17;26.83;99639.03;12201137;19;20006;-80
2022/09/02 11:53:42;;;;;;;2.33;1.00;;;;;;;29.18;25.66;99641.78;12228459;19;20491;-80
2022/09/02 11:57:52;;;;;;;3.28;1.30;;;;;;;29.74;24.56;99632.56;12206816;19;20368;-81
2022/09/02 12:01:54;;;;;;;1.95;1.00;;;;;;;29.94;24.55;99624.72;12227707;19;20049;-81
2022/09/02 12:06:09;;;;;;;3.55;1.02;;;;;;;30.37;23.56;99616.75;12226350;19;20479;-80
2022/09/02 12:10:54;;;;;;;5.53;1.42;;;;;;;30.62;23.35;99622.72;12206559;19;20010;-81
2022/09/02 12:14:56;;;;;;;7.63;1.40;;;;;;;30.96;23.67;99611.28;12224074;19;20014;-81
2022/09/02 12:19:06;;;;;;;5.28;1.40;;;;;;;31.20;23.19;99616.38;12204714;19;20688;-81
2022/09/02 12:23:29;;;;;;;3.85;1.10;;;;;;;31.61;23.13;99604.91;12224506;19;20387;-80
2022/09/02 12:27:35;;;;;;;5.80;1.10;;;;;;;32.09;22.15;99616.19;12197975;19;20003;-81
2022/09/02 12:31:44;;;;;;;2.13;1.10;;;;;;;32.18;21.64;99610.13;12222090;19;20014;-81
2022/09/02 12:35:45;;;;;;;2.30;1.40;;;;;;;32.58;21.78;99602.53;12225937;19;20011;-81
2022/09/02 12:39:53;;;;;;;4.10;1.23;;;;;;;32.24;20.97;99594.25;12198988;19;20082;-81
2022/09/02 12:44:16;;;;;;;3.38;1.40;;;;;;;33.17;20.50;99591.63;12219605;19;20016;-81
2022/09/02 12:48:38;;;;;;;5.63;1.50;;;;;;;33.48;20.72;99587.06;12197421;19;20045;-82
2022/09/02 12:52:47;;;;;;;5.05;1.50;;;;;;;33.96;19.90;99575.13;12222737;19;20007;-82
2022/09/02 12:56:49;;;;;;;3.80;1.52;;;;;;;33.78;19.62;99571.53;12221859;19;20014;-82
2022/09/02 13:01:16;;;;;;;2.53;1.63;;;;;;;34.02;19.96;99570.59;12196406;19;20031;-82
2022/09/02 13:05:26;;;;;;;3.17;1.30;;;;;;;34.60;19.14;99565.44;12220658;19;20015;-82
2022/09/02 13:09:58;;;;;;;2.75;1.35;;;;;;;35.10;18.83;99552.78;12201333;19;20050;-81
2022/09/02 13:14:31;;;;;;;2.15;1.30;;;;;;;35.74;18.63;99551.34;12222911;19;20023;-82
2022/09/02 13:18:38;;;;;;;2.63;1.13;;;;;;;35.97;18.63;99544.94;12202453;19;20027;-81
2022/09/02 13:22:48;;;;;;;3.03;1.20;;;;;;;36.31;18.07;99546.97;12220727;19;20023;-82
2022/09/02 13:27:19;;;;;;;3.58;1.40;;;;;;;36.02;17.97;99545.28;12216257;19;20433;-82
2022/09/02 13:31:23;;;;;;;1.80;1.20;;;;;;;36.39;17.92;99537.00;12190345;19;20484;-81
2022/09/02 13:35:27;;;;;;;1.80;1.27;;;;;;;35.98;17.23;99533.03;12219968;19;20011;-81
2022/09/02 13:39:29;;;;;;;1.70;1.17;;;;;;;36.03;17.54;99521.13;12201763;19;20014;-80
2022/09/02 13:43:31;;;;;;;1.75;1.20;;;;;;;36.28;17.49;99506.41;12208227;19;20531;-83
2022/09/02 13:47:34;;;;;;;1.85;1.45;;;;;;;36.21;17.68;99499.97;12212800;19;20038;-81
2022/09/02 13:51:41;;;;;;;3.38;1.27;;;;;;;35.95;17.52;99513.81;12193899;19;20022;-82
2022/09/02 13:55:52;;;;;;;4.47;1.30;;;;;;;35.93;17.18;99499.09;12211551;19;20485;-82
2022/09/02 13:59:55;;;;;;;1.48;1.00;;;;;;;34.55;18.51;99487.84;12216041;19;20022;-82
2022/09/02 14:03:59;;;;;;;4.30;1.60;;;;;;;33.12;19.62;99497.81;12189733;19;20007;-81
2022/09/02 14:08:05;;;;;;;2.45;1.25;;;;;;;31.79;19.91;99480.47;12214978;19;20013;-82
2022/09/02 14:12:07;;;;;;;10.10;2.08;;;;;;;30.66;21.18;99476.50;12216239;19;20011;-80
2022/09/02 14:16:32;;;;;;;2.55;1.23;;;;;;;29.75;22.05;99472.34;12201645;19;20102;-79
2022/09/02 14:20:36;;;;;;;2.47;1.40;;;;;;;29.27;22.50;99472.06;12221341;19;20018;-80
2022/09/02 14:24:39;;;;;;;3.03;0.88;;;;;;;28.67;23.11;99452.94;12194287;19;20492;-79
2022/09/02 14:28:41;;;;;;;3.72;0.90;;;;;;;28.17;24.06;99458.56;12215462;19;20077;-80
2022/09/02 14:32:43;;;;;;;2.13;0.90;;;;;;;28.41;23.69;99450.91;12217475;19;20030;-82
2022/09/02 14:36:44;;;;;;;1.30;0.80;;;;;;;29.20;23.15;99443.63;12195112;19;20086;-80
2022/09/02 14:40:46;;;;;;;2.00;0.93;;;;;;;30.30;22.11;99431.94;12217728;19;20086;-80
2022/09/02 14:44:48;;;;;;;3.30;0.90;;;;;;;30.51;21.98;99431.31;12218939;19;20010;-80
2022/09/02 14:48:53;;;;;;;;;;;;;;;29.90;22.20;99433.56;12198894;19;20017;-81
2022/09/02 14:53:00;;;;;;;2.33;1.00;;;;;;;29.54;22.12;99424.59;12216736;19;19986;-80
2022/09/02 14:57:02;;;;;;;3.50;1.30;;;;;;;28.94;22.98;99422.56;12216532;19;20023;-80
2022/09/02 15:01:07;;;;;;;1.90;1.05;;;;;;;28.78;23.43;99430.44;12198079;19;20018;-79
2022/09/02 15:05:13;;;;;;;4.82;1.75;;;;;;;28.66;23.31;99427.81;12213620;19;20029;-80
2022/09/02 15:09:18;;;;;;;3.55;1.27;;;;;;;28.72;23.10;99423.44;12218235;19;20014;-81
2022/09/02 15:13:28;;;;;;;;;;;;;;;28.25;23.20;99419.00;12196144;19;20480;-80
2022/09/02 15:17:30;;;;;;;1.77;0.93;;;;;;;27.77;23.69;99412.84;12215891;19;20491;-80
2022/09/02 15:21:32;;;;;;;1.90;1.00;;;;;;;27.70;23.90;99399.38;12196858;19;20033;-80
2022/09/02 15:25:34;;;;;;;4.28;0.82;;;;;;;27.35;24.15;99402.31;12216038;19;20028;-80
2022/09/02 15:29:35;;;;;;;4.50;0.90;;;;;;;27.09;24.42;99403.75;12215769;19;20019;-80
2022/09/02 15:33:39;;;;;;;1.70;1.08;;;;;;;26.98;24.50;99412.03;12197047;19;20006;-79
2022/09/02 15:37:41;;;;;;;1.77;0.90;;;;;;;26.75;25.05;99406.25;12217857;19;20039;-80
2022/09/02 15:41:43;;;;;;;1.98;1.08;;;;;;;26.81;24.70;99403.97;12213682;19;20007;-79
2022/09/02 15:45:46;;;;;;;4.05;1.15;;;;;;;27.37;24.00;99402.78;12191570;19;20074;-80
2022/09/02 15:49:51;;;;;;;3.25;1.05;;;;;;;27.30;24.45;99403.44;12212996;19;20455;-80
2022/09/02 15:53:57;;;;;;;2.20;1.00;;;;;;;26.95;24.66;99401.47;12212354;19;20010;-80
2022/09/02 15:57:59;;;;;;;3.70;0.90;;;;;;;26.67;24.98;99398.78;12197096;19;20018;-80
2022/09/02 16:02:01;;;;;;;6.65;1.00;;;;;;;26.35;25.54;99389.50;12214282;19;20031;-81
2022/09/02 16:06:04;;;;;;;1.95;1.13;;;;;;;26.20;25.58;99402.44;12214603;19;20014;-80
2022/09/02 16:10:07;;;;;;;3.35;1.17;;;;;;;26.63;25.44;99399.91;12203454;19;20188;-79
2022/09/02 16:14:09;;;;;;;2.00;1.00;;;;;;;26.89;25.02;99393.63;12225231;19;20010;-80
2022/09/02 16:18:10;;;;;;;5.38;1.00;;;;;;;26.54;25.50;99395.25;12225819;19;20472;-80
2022/09/02 16:22:12;;;;;;;2.07;0.90;;;;;;;26.44;25.42;99384.47;12202401;19;20018;-79
2022/09/02 16:26:19;;;;;;;1.87;0.93;;;;;;;26.25;26.08;99388.06;12224946;19;20010;-80
2022/09/02 16:30:22;;;;;;;1.80;1.25;;;;;;;26.47;25.86;99392.22;12250759;19;20017;-79
2022/09/02 16:34:24;;;;;;;2.08;1.15;;;;;;;26.40;25.88;99386.41;12248067;19;20010;-78
2022/09/02 16:38:26;;;;;;;3.97;1.10;;;;;;;26.13;26.08;99380.50;12243265;19;20014;-80
2022/09/02 16:42:27;;;;;;;2.90;1.07;;;;;;;25.79;26.55;99390.50;12205174;19;20347;-80
2022/09/02 16:46:29;;;;;;;2.57;0.90;;;;;;;25.52;26.82;99383.72;12229742;19;20010;-79
2022/09/02 16:50:31;;;;;;;8.45;1.25;;;;;;;25.23;27.51;99382.06;12226387;19;20007;-80
2022/09/02 16:54:32;;;;;;;3.25;1.02;;;;;;;25.06;27.11;99390.78;12204959;19;20084;-80
2022/09/02 16:58:40;;;;;;;3.75;1.20;;;;;;;24.87;27.36;99389.44;12226999;19;20014;-80
2022/09/02 17:02:42;;;;;;;3.33;1.20;;;;;;;24.74;27.64;99387.81;12227345;19;20097;-79
2022/09/02 17:06:43;;;;;;;1.63;0.90;;;;;;;24.58;27.76;99386.91;12204505;19;20015;-80
2022/09/02 17:10:45;;;;;;;3.15;1.17;;;;;;;24.34;28.36;99389.34;12224391;19;20028;-81
2022/09/02 17:14:46;;;;;;;4.20;1.30;;;;;;;24.26;28.59;99395.91;12222467;19;20104;-80
2022/09/02 17:18:48;;;;;;;3.88;1.10;;;;;;;24.15;28.51;99393.91;12203000;19;20097;-80
2022/09/02 17:22:52;;;;;;;3.78;0.90;;;;;;;24.03;28.53;99398.34;12222394;19;20066;-80
2022/09/02 17:26:54;;;;;;;5.43;1.10;;;;;;;23.92;29.09;99400.00;12221098;19;20076;-80
2022/09/02 17:30:57;;;;;;;2.15;0.90;;;;;;;23.76;29.14;99399.00;12199990;19;20006;-80
2022/09/02 17:35:00;;;;;;;;;;;;;;;23.55;29.71;99402.69;12225493;19;20029;-80
2022/09/02 17:39:05;;;;;;;;;;;;;;;23.33;29.63;99397.44;12226254;19;19971;-80
2022/09/02 17:43:07;;;;;;;7.88;1.00;;;;;;;23.14;30.24;99395.97;12203151;19;19918;-80
2022/09/02 17:47:18;;;;;;;4.33;1.10;;;;;;;22.97;30.72;99394.13;12222968;19;20090;-81
2022/09/02 17:51:20;;;;;;;3.13;1.00;;;;;;;22.75;30.66;99389.66;12224581;19;20003;-80
2022/09/02 17:55:22;;;;;;;10.33;1.30;;;;;;;22.54;31.41;99388.78;12203217;19;20014;-79
2022/09/02 17:59:43;;;;;;;3.58;1.00;;;;;;;22.27;31.87;99385.28;12225206;19;20028;-81
2022/09/02 18:04:01;;;;;;;2.75;1.23;;;;;;;22.01;32.85;99385.41;12200283;19;20018;-79
2022/09/02 18:08:30;;;;;;;2.17;1.23;;;;;;;21.73;32.85;99382.19;12220017;19;20343;-79
2022/09/02 18:12:35;;;;;;;3.30;1.02;;;;;;;21.55;33.14;99375.00;12197655;19;20023;-80
2022/09/02 18:17:01;;;;;;;4.10;1.30;;;;;;;21.38;33.63;99379.47;12220383;19;20038;-80
2022/09/02 18:21:11;;;;;;;2.97;1.15;;;;;;;21.20;33.44;99391.00;12221373;19;20471;-78
2022/09/02 18:25:36;;;;;;;3.17;0.93;;;;;;;21.05;34.25;99395.94;12195853;19;20018;-79
2022/09/02 18:29:57;;;;;;;2.63;1.10;;;;;;;20.84;34.87;99394.97;12222894;19;20015;-79
2022/09/02 18:34:15;;;;;;;2.15;1.00;;;;;;;20.65;35.11;99398.09;12201722;19;20023;-80
2022/09/02 18:38:39;;;;;;;4.70;1.08;;;;;;;20.52;35.49;99393.41;12223864;19;20023;-79
2022/09/02 18:42:53;;;;;;;5.53;1.27;;;;;;;20.36;35.32;99395.84;12202242;19;20014;-80
2022/09/02 18:47:00;;;;;;;4.75;1.50;;;;;;;20.29;35.32;99396.31;12218396;19;20014;-79
2022/09/02 18:51:23;;;;;;;3.95;1.02;;;;;;;20.26;35.73;99402.56;12222532;19;20007;-79
2022/09/02 18:55:34;;;;;;;2.58;1.00;;;;;;;20.17;35.87;99398.94;12197832;19;20487;-79
2022/09/02 18:59:48;;;;;;;2.83;1.20;;;;;;;20.18;35.71;99406.16;12221579;19;20023;-79
2022/09/02 19:03:50;;;;;;;3.55;1.30;;;;;;;20.20;35.82;99404.69;12195444;19;20106;-80
2022/09/02 19:12:21;;;;;;;4.43;1.30;;;;;;;20.19;35.88;99408.63;12218063;19;20010;-80
2022/09/02 19:16:30;;;;;;;2.43;1.10;;;;;;;20.13;36.21;99414.69;12197336;19;20014;-81
2022/09/02 19:20:34;;;;;;;3.63;1.00;;;;;;;20.03;36.42;99410.22;12218997;19;20006;-80